Terminal Aerodrome Forecast
Issued by NWS

Home | Current Version | Previous Version | Text Only | Print | Product List | Glossary On
Versions: 1 2 3 4 5 6 7 8 9 10 11 12 13 14 15 16 17 18 19 20
000
FTUS41 KBGM 081137
TAFELM
TAF
KELM 081137Z 0812/0912 23008KT P6SM OVC080
     FM081800 26012G20KT P6SM BKN035
      TEMPO 0820/0824 2SM -SHSN OVC020
     FM090000 26009G18KT P6SM BKN035
     FM090900 28009KT P6SM BKN025=

USA.gov is the U.S. government's official web portal to all federal, state and local government web resources and services.